sensor_id;sensor_type;location;lat;lon;timestamp;P1;durP1;ratioP1;P2;durP2;ratioP2
15905;SDS011;8051;50.820;4.884;2023-07-13T00:01:55;20.63;;;19.13;;
15905;SDS011;8051;50.820;4.884;2023-07-13T00:04:23;21.50;;;20.03;;
15905;SDS011;8051;50.820;4.884;2023-07-13T00:06:51;20.60;;;19.30;;
15905;SDS011;8051;50.820;4.884;2023-07-13T00:09:20;20.70;;;19.07;;
15905;SDS011;8051;50.820;4.884;2023-07-13T00:11:50;20.90;;;19.20;;
15905;SDS011;8051;50.820;4.884;2023-07-13T00:14:20;20.57;;;19.03;;
15905;SDS011;8051;50.820;4.884;2023-07-13T00:16:47;20.43;;;19.07;;
15905;SDS011;8051;50.820;4.884;2023-07-13T00:19:15;20.40;;;18.90;;
15905;SDS011;8051;50.820;4.884;2023-07-13T00:21:42;20.80;;;19.37;;
15905;SDS011;8051;50.820;4.884;2023-07-13T00:24:10;20.50;;;19.20;;
15905;SDS011;8051;50.820;4.884;2023-07-13T00:26:39;20.17;;;18.53;;
15905;SDS011;8051;50.820;4.884;2023-07-13T00:29:10;20.43;;;18.90;;
15905;SDS011;8051;50.820;4.884;2023-07-13T00:31:39;22.63;;;20.83;;
15905;SDS011;8051;50.820;4.884;2023-07-13T00:34:07;21.33;;;19.63;;
15905;SDS011;8051;50.820;4.884;2023-07-13T00:36:35;22.73;;;21.07;;
15905;SDS011;8051;50.820;4.884;2023-07-13T00:39:02;23.07;;;20.97;;
15905;SDS011;8051;50.820;4.884;2023-07-13T00:41:30;24.90;;;22.90;;
15905;SDS011;8051;50.820;4.884;2023-07-13T00:43:58;24.73;;;22.80;;
15905;SDS011;8051;50.820;4.884;2023-07-13T00:46:26;22.10;;;20.60;;
15905;SDS011;8051;50.820;4.884;2023-07-13T00:48:57;22.70;;;20.97;;
15905;SDS011;8051;50.820;4.884;2023-07-13T00:51:29;22.77;;;21.17;;
15905;SDS011;8051;50.820;4.884;2023-07-13T00:54:00;24.20;;;22.60;;
15905;SDS011;8051;50.820;4.884;2023-07-13T00:56:32;24.77;;;22.63;;
15905;SDS011;8051;50.820;4.884;2023-07-13T00:59:01;24.90;;;22.57;;
15905;SDS011;8051;50.820;4.884;2023-07-13T01:01:32;23.70;;;21.70;;
15905;SDS011;8051;50.820;4.884;2023-07-13T01:04:03;24.33;;;22.47;;
15905;SDS011;8051;50.820;4.884;2023-07-13T01:06:33;22.90;;;21.40;;
15905;SDS011;8051;50.820;4.884;2023-07-13T01:09:01;23.03;;;21.23;;
15905;SDS011;8051;50.820;4.884;2023-07-13T01:11:30;22.77;;;21.23;;
15905;SDS011;8051;50.820;4.884;2023-07-13T01:13:57;23.90;;;22.27;;
15905;SDS011;8051;50.820;4.884;2023-07-13T01:16:27;23.73;;;21.93;;
15905;SDS011;8051;50.820;4.884;2023-07-13T01:18:57;28.53;;;22.00;;
15905;SDS011;8051;50.820;4.884;2023-07-13T01:21:28;23.23;;;21.60;;
15905;SDS011;8051;50.820;4.884;2023-07-13T01:23:56;23.80;;;22.03;;
15905;SDS011;8051;50.820;4.884;2023-07-13T01:26:24;23.30;;;21.70;;
15905;SDS011;8051;50.820;4.884;2023-07-13T01:28:52;24.03;;;22.13;;
15905;SDS011;8051;50.820;4.884;2023-07-13T01:31:21;23.00;;;21.40;;
15905;SDS011;8051;50.820;4.884;2023-07-13T01:33:49;24.43;;;22.37;;
15905;SDS011;8051;50.820;4.884;2023-07-13T01:36:16;23.17;;;21.53;;
15905;SDS011;8051;50.820;4.884;2023-07-13T01:38:47;24.17;;;22.17;;
15905;SDS011;8051;50.820;4.884;2023-07-13T01:41:15;22.53;;;20.83;;
15905;SDS011;8051;50.820;4.884;2023-07-13T01:43:42;23.10;;;21.13;;
15905;SDS011;8051;50.820;4.884;2023-07-13T01:46:09;22.40;;;20.93;;
15905;SDS011;8051;50.820;4.884;2023-07-13T01:48:37;21.53;;;20.17;;
15905;SDS011;8051;50.820;4.884;2023-07-13T01:51:04;23.27;;;20.93;;
15905;SDS011;8051;50.820;4.884;2023-07-13T01:53:32;21.87;;;20.27;;
15905;SDS011;8051;50.820;4.884;2023-07-13T01:56:01;22.20;;;20.33;;
15905;SDS011;8051;50.820;4.884;2023-07-13T01:58:28;22.33;;;20.83;;
15905;SDS011;8051;50.820;4.884;2023-07-13T02:00:56;22.23;;;20.60;;
15905;SDS011;8051;50.820;4.884;2023-07-13T02:03:23;23.27;;;21.13;;
15905;SDS011;8051;50.820;4.884;2023-07-13T02:05:51;22.27;;;20.57;;
15905;SDS011;8051;50.820;4.884;2023-07-13T02:08:18;21.27;;;19.70;;
15905;SDS011;8051;50.820;4.884;2023-07-13T02:10:45;21.10;;;19.63;;
15905;SDS011;8051;50.820;4.884;2023-07-13T02:13:14;20.90;;;19.40;;
15905;SDS011;8051;50.820;4.884;2023-07-13T02:15:42;20.17;;;18.60;;
15905;SDS011;8051;50.820;4.884;2023-07-13T02:18:09;20.33;;;18.90;;
15905;SDS011;8051;50.820;4.884;2023-07-13T02:20:42;18.40;;;17.17;;
15905;SDS011;8051;50.820;4.884;2023-07-13T02:23:09;18.73;;;17.30;;
15905;SDS011;8051;50.820;4.884;2023-07-13T02:25:37;20.47;;;18.00;;
15905;SDS011;8051;50.820;4.884;2023-07-13T02:28:05;20.83;;;19.03;;
15905;SDS011;8051;50.820;4.884;2023-07-13T02:30:34;20.53;;;18.80;;
15905;SDS011;8051;50.820;4.884;2023-07-13T02:33:01;20.60;;;18.77;;
15905;SDS011;8051;50.820;4.884;2023-07-13T02:35:29;20.90;;;19.27;;
15905;SDS011;8051;50.820;4.884;2023-07-13T02:37:56;20.93;;;19.33;;
15905;SDS011;8051;50.820;4.884;2023-07-13T02:40:24;20.73;;;19.23;;
15905;SDS011;8051;50.820;4.884;2023-07-13T02:42:51;21.37;;;19.47;;
15905;SDS011;8051;50.820;4.884;2023-07-13T02:45:19;21.43;;;19.17;;
15905;SDS011;8051;50.820;4.884;2023-07-13T02:47:48;20.80;;;18.97;;
15905;SDS011;8051;50.820;4.884;2023-07-13T02:50:15;21.43;;;19.47;;
15905;SDS011;8051;50.820;4.884;2023-07-13T02:52:43;20.77;;;19.20;;
15905;SDS011;8051;50.820;4.884;2023-07-13T02:55:10;21.37;;;19.43;;
15905;SDS011;8051;50.820;4.884;2023-07-13T02:57:38;21.10;;;18.93;;
15905;SDS011;8051;50.820;4.884;2023-07-13T03:00:06;20.40;;;18.90;;
15905;SDS011;8051;50.820;4.884;2023-07-13T03:02:35;21.53;;;19.17;;
15905;SDS011;8051;50.820;4.884;2023-07-13T03:05:04;20.97;;;19.20;;
15905;SDS011;8051;50.820;4.884;2023-07-13T03:07:31;21.60;;;19.20;;
15905;SDS011;8051;50.820;4.884;2023-07-13T03:09:59;21.10;;;19.13;;
15905;SDS011;8051;50.820;4.884;2023-07-13T03:12:26;20.33;;;18.57;;
15905;SDS011;8051;50.820;4.884;2023-07-13T03:14:54;19.77;;;18.07;;
15905;SDS011;8051;50.820;4.884;2023-07-13T03:17:21;19.73;;;17.97;;
15905;SDS011;8051;50.820;4.884;2023-07-13T03:19:49;19.27;;;17.57;;
15905;SDS011;8051;50.820;4.884;2023-07-13T03:22:18;25.80;;;17.70;;
15905;SDS011;8051;50.820;4.884;2023-07-13T03:24:45;19.07;;;17.60;;
15905;SDS011;8051;50.820;4.884;2023-07-13T03:27:14;19.30;;;17.80;;
15905;SDS011;8051;50.820;4.884;2023-07-13T03:29:43;22.80;;;17.00;;
15905;SDS011;8051;50.820;4.884;2023-07-13T03:32:11;18.57;;;16.93;;
15905;SDS011;8051;50.820;4.884;2023-07-13T03:34:38;18.47;;;16.63;;
15905;SDS011;8051;50.820;4.884;2023-07-13T03:37:06;19.37;;;17.53;;
15905;SDS011;8051;50.820;4.884;2023-07-13T03:39:35;20.40;;;17.97;;
15905;SDS011;8051;50.820;4.884;2023-07-13T03:42:02;18.80;;;17.07;;
15905;SDS011;8051;50.820;4.884;2023-07-13T03:44:30;21.63;;;18.30;;
15905;SDS011;8051;50.820;4.884;2023-07-13T03:46:57;19.67;;;17.87;;
15905;SDS011;8051;50.820;4.884;2023-07-13T03:49:24;18.47;;;16.87;;
15905;SDS011;8051;50.820;4.884;2023-07-13T03:51:52;18.93;;;17.10;;
15905;SDS011;8051;50.820;4.884;2023-07-13T03:54:19;24.87;;;17.83;;
15905;SDS011;8051;50.820;4.884;2023-07-13T03:56:48;19.07;;;17.23;;
15905;SDS011;8051;50.820;4.884;2023-07-13T03:59:15;20.33;;;18.23;;
15905;SDS011;8051;50.820;4.884;2023-07-13T04:01:43;18.77;;;17.03;;
15905;SDS011;8051;50.820;4.884;2023-07-13T04:04:10;20.83;;;18.83;;
15905;SDS011;8051;50.820;4.884;2023-07-13T04:06:38;18.17;;;16.47;;
15905;SDS011;8051;50.820;4.884;2023-07-13T04:09:05;18.57;;;16.93;;
15905;SDS011;8051;50.820;4.884;2023-07-13T04:11:34;17.53;;;15.90;;
15905;SDS011;8051;50.820;4.884;2023-07-13T04:14:04;17.80;;;16.20;;
15905;SDS011;8051;50.820;4.884;2023-07-13T04:16:31;16.83;;;15.07;;
15905;SDS011;8051;50.820;4.884;2023-07-13T04:18:59;17.17;;;15.93;;
15905;SDS011;8051;50.820;4.884;2023-07-13T04:21:26;17.73;;;16.00;;
15905;SDS011;8051;50.820;4.884;2023-07-13T04:23:55;18.13;;;16.47;;
15905;SDS011;8051;50.820;4.884;2023-07-13T04:26:23;17.50;;;15.90;;
15905;SDS011;8051;50.820;4.884;2023-07-13T04:28:50;18.93;;;17.07;;
15905;SDS011;8051;50.820;4.884;2023-07-13T04:31:20;19.27;;;17.43;;
15905;SDS011;8051;50.820;4.884;2023-07-13T04:33:48;19.70;;;17.97;;
15905;SDS011;8051;50.820;4.884;2023-07-13T04:36:16;20.57;;;18.57;;
15905;SDS011;8051;50.820;4.884;2023-07-13T04:38:43;19.33;;;17.27;;
15905;SDS011;8051;50.820;4.884;2023-07-13T04:41:11;19.33;;;17.30;;
15905;SDS011;8051;50.820;4.884;2023-07-13T04:43:40;20.80;;;18.83;;
15905;SDS011;8051;50.820;4.884;2023-07-13T04:46:09;18.87;;;17.03;;
15905;SDS011;8051;50.820;4.884;2023-07-13T04:48:39;21.23;;;18.80;;
15905;SDS011;8051;50.820;4.884;2023-07-13T04:51:07;20.30;;;18.60;;
15905;SDS011;8051;50.820;4.884;2023-07-13T04:53:35;21.17;;;18.93;;
15905;SDS011;8051;50.820;4.884;2023-07-13T04:56:02;21.83;;;19.70;;
15905;SDS011;8051;50.820;4.884;2023-07-13T04:58:31;21.13;;;19.17;;
15905;SDS011;8051;50.820;4.884;2023-07-13T05:00:59;22.70;;;20.20;;
15905;SDS011;8051;50.820;4.884;2023-07-13T05:03:28;21.80;;;20.10;;
15905;SDS011;8051;50.820;4.884;2023-07-13T05:05:58;23.33;;;20.93;;
15905;SDS011;8051;50.820;4.884;2023-07-13T05:08:27;21.77;;;20.17;;
15905;SDS011;8051;50.820;4.884;2023-07-13T05:10:54;22.47;;;20.40;;
15905;SDS011;8051;50.820;4.884;2023-07-13T05:13:22;21.17;;;19.00;;
15905;SDS011;8051;50.820;4.884;2023-07-13T05:15:55;23.53;;;21.27;;
15905;SDS011;8051;50.820;4.884;2023-07-13T05:18:23;23.87;;;21.27;;
15905;SDS011;8051;50.820;4.884;2023-07-13T05:20:59;21.67;;;19.97;;
15905;SDS011;8051;50.820;4.884;2023-07-13T05:23:28;23.13;;;21.13;;
15905;SDS011;8051;50.820;4.884;2023-07-13T05:25:56;25.23;;;20.63;;
15905;SDS011;8051;50.820;4.884;2023-07-13T05:28:24;24.53;;;21.97;;
15905;SDS011;8051;50.820;4.884;2023-07-13T05:30:52;23.57;;;21.43;;
15905;SDS011;8051;50.820;4.884;2023-07-13T05:33:20;22.80;;;20.83;;
15905;SDS011;8051;50.820;4.884;2023-07-13T05:35:48;23.57;;;21.80;;
15905;SDS011;8051;50.820;4.884;2023-07-13T05:38:17;24.63;;;22.17;;
15905;SDS011;8051;50.820;4.884;2023-07-13T05:40:44;23.50;;;21.50;;
15905;SDS011;8051;50.820;4.884;2023-07-13T05:43:12;23.70;;;21.43;;
15905;SDS011;8051;50.820;4.884;2023-07-13T05:45:41;24.63;;;22.63;;
15905;SDS011;8051;50.820;4.884;2023-07-13T05:48:08;25.00;;;22.70;;
15905;SDS011;8051;50.820;4.884;2023-07-13T05:50:36;24.80;;;22.47;;
15905;SDS011;8051;50.820;4.884;2023-07-13T05:53:03;25.27;;;22.87;;
15905;SDS011;8051;50.820;4.884;2023-07-13T05:55:33;27.00;;;24.30;;
15905;SDS011;8051;50.820;4.884;2023-07-13T05:58:00;25.03;;;22.73;;
15905;SDS011;8051;50.820;4.884;2023-07-13T06:00:28;25.30;;;22.43;;
15905;SDS011;8051;50.820;4.884;2023-07-13T06:02:55;25.73;;;23.23;;
15905;SDS011;8051;50.820;4.884;2023-07-13T06:05:23;26.13;;;23.80;;
15905;SDS011;8051;50.820;4.884;2023-07-13T06:07:52;24.00;;;21.87;;
15905;SDS011;8051;50.820;4.884;2023-07-13T06:10:19;25.77;;;23.23;;
15905;SDS011;8051;50.820;4.884;2023-07-13T06:12:48;25.27;;;23.07;;
15905;SDS011;8051;50.820;4.884;2023-07-13T06:15:16;24.60;;;22.03;;
15905;SDS011;8051;50.820;4.884;2023-07-13T06:17:44;27.00;;;24.63;;
15905;SDS011;8051;50.820;4.884;2023-07-13T06:20:11;26.77;;;24.57;;
15905;SDS011;8051;50.820;4.884;2023-07-13T06:22:39;27.70;;;24.90;;
15905;SDS011;8051;50.820;4.884;2023-07-13T06:25:07;27.17;;;24.47;;
15905;SDS011;8051;50.820;4.884;2023-07-13T06:27:35;25.93;;;23.50;;
15905;SDS011;8051;50.820;4.884;2023-07-13T06:30:04;26.20;;;23.63;;
15905;SDS011;8051;50.820;4.884;2023-07-13T06:32:32;26.23;;;23.90;;
15905;SDS011;8051;50.820;4.884;2023-07-13T06:35:00;27.07;;;24.40;;
15905;SDS011;8051;50.820;4.884;2023-07-13T06:37:27;24.27;;;22.33;;
15905;SDS011;8051;50.820;4.884;2023-07-13T06:39:55;24.57;;;22.43;;
15905;SDS011;8051;50.820;4.884;2023-07-13T06:42:22;24.97;;;22.97;;
15905;SDS011;8051;50.820;4.884;2023-07-13T06:44:50;26.37;;;23.53;;
15905;SDS011;8051;50.820;4.884;2023-07-13T06:47:18;25.67;;;23.77;;
15905;SDS011;8051;50.820;4.884;2023-07-13T06:49:46;26.27;;;23.90;;
15905;SDS011;8051;50.820;4.884;2023-07-13T06:52:13;26.97;;;24.50;;
15905;SDS011;8051;50.820;4.884;2023-07-13T06:54:40;27.53;;;25.10;;
15905;SDS011;8051;50.820;4.884;2023-07-13T06:57:08;24.10;;;22.30;;
15905;SDS011;8051;50.820;4.884;2023-07-13T06:59:36;24.10;;;22.23;;
15905;SDS011;8051;50.820;4.884;2023-07-13T07:02:03;26.00;;;23.67;;
15905;SDS011;8051;50.820;4.884;2023-07-13T07:04:33;26.77;;;23.67;;
15905;SDS011;8051;50.820;4.884;2023-07-13T07:07:00;26.77;;;24.13;;
15905;SDS011;8051;50.820;4.884;2023-07-13T07:09:28;25.43;;;23.10;;
15905;SDS011;8051;50.820;4.884;2023-07-13T07:11:56;24.33;;;22.37;;
15905;SDS011;8051;50.820;4.884;2023-07-13T07:14:24;26.77;;;24.17;;
15905;SDS011;8051;50.820;4.884;2023-07-13T07:16:51;26.50;;;24.23;;
15905;SDS011;8051;50.820;4.884;2023-07-13T07:19:19;24.70;;;22.43;;
15905;SDS011;8051;50.820;4.884;2023-07-13T07:21:48;26.40;;;24.00;;
15905;SDS011;8051;50.820;4.884;2023-07-13T07:24:15;25.03;;;22.90;;
15905;SDS011;8051;50.820;4.884;2023-07-13T07:26:42;26.73;;;24.20;;
15905;SDS011;8051;50.820;4.884;2023-07-13T07:29:10;26.13;;;23.90;;
15905;SDS011;8051;50.820;4.884;2023-07-13T07:31:37;26.80;;;24.87;;
15905;SDS011;8051;50.820;4.884;2023-07-13T07:34:05;25.63;;;23.60;;
15905;SDS011;8051;50.820;4.884;2023-07-13T07:36:32;22.27;;;20.67;;
15905;SDS011;8051;50.820;4.884;2023-07-13T07:39:02;23.53;;;21.47;;
15905;SDS011;8051;50.820;4.884;2023-07-13T07:41:30;32.43;;;22.97;;
15905;SDS011;8051;50.820;4.884;2023-07-13T07:43:57;26.33;;;24.17;;
15905;SDS011;8051;50.820;4.884;2023-07-13T07:46:25;25.23;;;23.37;;
15905;SDS011;8051;50.820;4.884;2023-07-13T07:48:53;25.07;;;22.80;;
15905;SDS011;8051;50.820;4.884;2023-07-13T07:51:20;26.80;;;24.50;;
15905;SDS011;8051;50.820;4.884;2023-07-13T07:53:48;27.43;;;25.23;;
15905;SDS011;8051;50.820;4.884;2023-07-13T07:56:17;25.17;;;23.53;;
15905;SDS011;8051;50.820;4.884;2023-07-13T07:58:44;26.77;;;24.50;;
15905;SDS011;8051;50.820;4.884;2023-07-13T08:01:12;27.03;;;24.87;;
15905;SDS011;8051;50.820;4.884;2023-07-13T08:03:39;27.80;;;25.60;;
15905;SDS011;8051;50.820;4.884;2023-07-13T08:06:07;26.50;;;24.17;;
15905;SDS011;8051;50.820;4.884;2023-07-13T08:08:34;24.60;;;22.63;;
15905;SDS011;8051;50.820;4.884;2023-07-13T08:11:02;23.77;;;22.17;;
15905;SDS011;8051;50.820;4.884;2023-07-13T08:13:32;27.83;;;25.57;;
15905;SDS011;8051;50.820;4.884;2023-07-13T08:15:59;24.17;;;22.47;;
15905;SDS011;8051;50.820;4.884;2023-07-13T08:18:27;23.47;;;21.57;;
15905;SDS011;8051;50.820;4.884;2023-07-13T08:20:55;22.43;;;20.57;;
15905;SDS011;8051;50.820;4.884;2023-07-13T08:23:23;22.13;;;20.60;;
15905;SDS011;8051;50.820;4.884;2023-07-13T08:25:52;23.27;;;21.50;;
15905;SDS011;8051;50.820;4.884;2023-07-13T08:28:20;24.00;;;22.23;;
15905;SDS011;8051;50.820;4.884;2023-07-13T08:30:49;23.93;;;21.70;;
15905;SDS011;8051;50.820;4.884;2023-07-13T08:33:16;23.70;;;21.83;;
15905;SDS011;8051;50.820;4.884;2023-07-13T08:35:45;23.13;;;21.40;;
15905;SDS011;8051;50.820;4.884;2023-07-13T08:38:13;24.40;;;22.20;;
15905;SDS011;8051;50.820;4.884;2023-07-13T08:40:41;22.17;;;20.50;;
15905;SDS011;8051;50.820;4.884;2023-07-13T08:43:09;24.43;;;22.40;;
15905;SDS011;8051;50.820;4.884;2023-07-13T08:45:42;23.00;;;21.10;;
15905;SDS011;8051;50.820;4.884;2023-07-13T08:48:14;22.33;;;20.50;;
15905;SDS011;8051;50.820;4.884;2023-07-13T08:50:48;22.50;;;20.93;;
15905;SDS011;8051;50.820;4.884;2023-07-13T08:53:19;23.23;;;21.63;;
15905;SDS011;8051;50.820;4.884;2023-07-13T08:55:57;25.07;;;23.10;;
15905;SDS011;8051;50.820;4.884;2023-07-13T08:58:26;25.07;;;22.83;;
15905;SDS011;8051;50.820;4.884;2023-07-13T09:00:56;24.13;;;21.77;;
15905;SDS011;8051;50.820;4.884;2023-07-13T09:03:38;24.77;;;22.67;;
15905;SDS011;8051;50.820;4.884;2023-07-13T09:06:13;24.20;;;22.30;;
15905;SDS011;8051;50.820;4.884;2023-07-13T09:08:51;23.83;;;22.13;;
15905;SDS011;8051;50.820;4.884;2023-07-13T09:11:29;23.43;;;21.60;;
15905;SDS011;8051;50.820;4.884;2023-07-13T09:14:14;21.83;;;20.47;;
15905;SDS011;8051;50.820;4.884;2023-07-13T09:16:53;20.63;;;19.30;;
15905;SDS011;8051;50.820;4.884;2023-07-13T09:19:23;22.20;;;20.53;;
15905;SDS011;8051;50.820;4.884;2023-07-13T09:21:55;22.37;;;20.53;;
15905;SDS011;8051;50.820;4.884;2023-07-13T09:24:29;23.07;;;21.23;;
15905;SDS011;8051;50.820;4.884;2023-07-13T09:27:03;20.67;;;19.17;;
15905;SDS011;8051;50.820;4.884;2023-07-13T09:29:43;21.53;;;20.07;;
15905;SDS011;8051;50.820;4.884;2023-07-13T09:32:16;19.57;;;17.90;;
15905;SDS011;8051;50.820;4.884;2023-07-13T09:34:51;19.70;;;18.37;;
15905;SDS011;8051;50.820;4.884;2023-07-13T09:37:20;21.17;;;19.57;;
15905;SDS011;8051;50.820;4.884;2023-07-13T09:39:49;19.53;;;18.07;;
15905;SDS011;8051;50.820;4.884;2023-07-13T09:42:19;19.23;;;17.63;;
15905;SDS011;8051;50.820;4.884;2023-07-13T09:44:53;22.17;;;20.40;;
15905;SDS011;8051;50.820;4.884;2023-07-13T09:47:22;19.93;;;18.40;;
15905;SDS011;8051;50.820;4.884;2023-07-13T09:49:57;16.90;;;16.00;;
15905;SDS011;8051;50.820;4.884;2023-07-13T09:52:26;18.70;;;17.03;;
15905;SDS011;8051;50.820;4.884;2023-07-13T09:55:12;16.23;;;15.13;;
15905;SDS011;8051;50.820;4.884;2023-07-13T09:57:50;17.97;;;16.50;;
15905;SDS011;8051;50.820;4.884;2023-07-13T10:00:22;16.93;;;15.80;;
15905;SDS011;8051;50.820;4.884;2023-07-13T10:03:01;17.27;;;16.03;;
15905;SDS011;8051;50.820;4.884;2023-07-13T10:05:41;18.50;;;16.93;;
15905;SDS011;8051;50.820;4.884;2023-07-13T10:08:17;18.20;;;16.70;;
15905;SDS011;8051;50.820;4.884;2023-07-13T10:10:51;18.17;;;17.00;;
15905;SDS011;8051;50.820;4.884;2023-07-13T10:13:29;19.00;;;17.50;;
15905;SDS011;8051;50.820;4.884;2023-07-13T10:15:59;21.40;;;19.67;;
15905;SDS011;8051;50.820;4.884;2023-07-13T10:18:28;20.23;;;18.63;;
15905;SDS011;8051;50.820;4.884;2023-07-13T10:21:04;17.80;;;16.60;;
15905;SDS011;8051;50.820;4.884;2023-07-13T10:23:37;16.70;;;15.20;;
15905;SDS011;8051;50.820;4.884;2023-07-13T10:26:05;15.80;;;14.80;;
15905;SDS011;8051;50.820;4.884;2023-07-13T10:28:39;16.97;;;15.23;;
15905;SDS011;8051;50.820;4.884;2023-07-13T10:31:10;15.93;;;14.73;;
15905;SDS011;8051;50.820;4.884;2023-07-13T10:33:40;17.97;;;16.67;;
15905;SDS011;8051;50.820;4.884;2023-07-13T10:36:13;18.27;;;17.10;;
15905;SDS011;8051;50.820;4.884;2023-07-13T10:38:44;19.50;;;18.10;;
15905;SDS011;8051;50.820;4.884;2023-07-13T10:41:15;17.57;;;16.30;;
15905;SDS011;8051;50.820;4.884;2023-07-13T10:43:46;15.40;;;14.50;;
15905;SDS011;8051;50.820;4.884;2023-07-13T10:46:17;18.10;;;16.33;;
15905;SDS011;8051;50.820;4.884;2023-07-13T10:48:48;19.50;;;18.00;;
15905;SDS011;8051;50.820;4.884;2023-07-13T10:51:20;17.43;;;15.97;;
15905;SDS011;8051;50.820;4.884;2023-07-13T10:54:10;16.67;;;15.33;;
15905;SDS011;8051;50.820;4.884;2023-07-13T10:56:43;15.63;;;14.63;;
15905;SDS011;8051;50.820;4.884;2023-07-13T10:59:12;17.83;;;16.87;;
15905;SDS011;8051;50.820;4.884;2023-07-13T11:01:53;17.03;;;16.03;;
15905;SDS011;8051;50.820;4.884;2023-07-13T11:04:23;17.60;;;16.37;;
15905;SDS011;8051;50.820;4.884;2023-07-13T11:06:56;15.30;;;14.47;;
15905;SDS011;8051;50.820;4.884;2023-07-13T11:09:33;16.20;;;15.10;;
15905;SDS011;8051;50.820;4.884;2023-07-13T11:12:07;18.20;;;16.80;;
15905;SDS011;8051;50.820;4.884;2023-07-13T11:14:42;17.73;;;16.17;;
15905;SDS011;8051;50.820;4.884;2023-07-13T11:17:33;14.90;;;13.90;;
15905;SDS011;8051;50.820;4.884;2023-07-13T11:20:20;17.13;;;16.03;;
15905;SDS011;8051;50.820;4.884;2023-07-13T11:22:52;16.00;;;14.97;;
15905;SDS011;8051;50.820;4.884;2023-07-13T11:25:34;16.07;;;15.07;;
15905;SDS011;8051;50.820;4.884;2023-07-13T11:28:11;15.33;;;14.33;;
15905;SDS011;8051;50.820;4.884;2023-07-13T11:30:46;13.43;;;12.40;;
15905;SDS011;8051;50.820;4.884;2023-07-13T11:33:16;15.07;;;14.00;;
15905;SDS011;8051;50.820;4.884;2023-07-13T11:35:48;14.87;;;13.97;;
15905;SDS011;8051;50.820;4.884;2023-07-13T11:38:30;13.43;;;12.63;;
15905;SDS011;8051;50.820;4.884;2023-07-13T11:41:02;16.33;;;15.03;;
15905;SDS011;8051;50.820;4.884;2023-07-13T11:43:32;14.57;;;13.63;;
15905;SDS011;8051;50.820;4.884;2023-07-13T11:46:13;15.83;;;14.73;;
15905;SDS011;8051;50.820;4.884;2023-07-13T11:48:42;12.40;;;11.57;;
15905;SDS011;8051;50.820;4.884;2023-07-13T11:51:14;12.27;;;11.13;;
15905;SDS011;8051;50.820;4.884;2023-07-13T11:53:49;14.30;;;13.40;;
15905;SDS011;8051;50.820;4.884;2023-07-13T11:56:18;12.57;;;11.53;;
15905;SDS011;8051;50.820;4.884;2023-07-13T11:58:48;11.80;;;10.87;;
15905;SDS011;8051;50.820;4.884;2023-07-13T12:01:20;13.27;;;12.57;;
15905;SDS011;8051;50.820;4.884;2023-07-13T12:03:48;12.67;;;11.80;;
15905;SDS011;8051;50.820;4.884;2023-07-13T12:06:21;10.00;;;9.30;;
15905;SDS011;8051;50.820;4.884;2023-07-13T12:08:57;12.23;;;11.47;;
15905;SDS011;8051;50.820;4.884;2023-07-13T12:11:26;11.90;;;11.20;;
15905;SDS011;8051;50.820;4.884;2023-07-13T12:13:54;12.13;;;11.10;;
15905;SDS011;8051;50.820;4.884;2023-07-13T12:16:24;11.90;;;11.13;;
15905;SDS011;8051;50.820;4.884;2023-07-13T12:18:55;12.87;;;11.80;;
15905;SDS011;8051;50.820;4.884;2023-07-13T12:21:29;10.30;;;9.63;;
15905;SDS011;8051;50.820;4.884;2023-07-13T12:24:00;10.60;;;9.90;;
15905;SDS011;8051;50.820;4.884;2023-07-13T12:26:29;11.40;;;10.60;;
15905;SDS011;8051;50.820;4.884;2023-07-13T12:28:58;9.63;;;8.93;;
15905;SDS011;8051;50.820;4.884;2023-07-13T12:31:31;9.83;;;9.13;;
15905;SDS011;8051;50.820;4.884;2023-07-13T12:34:02;10.17;;;9.33;;
15905;SDS011;8051;50.820;4.884;2023-07-13T12:36:34;9.07;;;8.63;;
15905;SDS011;8051;50.820;4.884;2023-07-13T12:39:11;8.10;;;7.30;;
15905;SDS011;8051;50.820;4.884;2023-07-13T12:41:40;8.33;;;7.87;;
15905;SDS011;8051;50.820;4.884;2023-07-13T12:44:10;8.60;;;8.10;;
15905;SDS011;8051;50.820;4.884;2023-07-13T12:46:39;9.60;;;9.00;;
15905;SDS011;8051;50.820;4.884;2023-07-13T12:49:22;8.83;;;8.23;;
15905;SDS011;8051;50.820;4.884;2023-07-13T12:51:57;9.53;;;8.83;;
15905;SDS011;8051;50.820;4.884;2023-07-13T12:54:27;9.97;;;9.00;;
15905;SDS011;8051;50.820;4.884;2023-07-13T12:56:55;9.27;;;8.57;;
15905;SDS011;8051;50.820;4.884;2023-07-13T12:59:25;10.77;;;9.00;;
15905;SDS011;8051;50.820;4.884;2023-07-13T13:02:01;9.30;;;8.80;;
15905;SDS011;8051;50.820;4.884;2023-07-13T13:04:47;9.77;;;9.17;;
15905;SDS011;8051;50.820;4.884;2023-07-13T13:07:15;10.23;;;9.70;;
15905;SDS011;8051;50.820;4.884;2023-07-13T13:09:44;9.73;;;9.20;;
15905;SDS011;8051;50.820;4.884;2023-07-13T13:12:12;9.70;;;9.20;;
15905;SDS011;8051;50.820;4.884;2023-07-13T13:14:40;10.00;;;9.50;;
15905;SDS011;8051;50.820;4.884;2023-07-13T13:17:11;11.57;;;10.77;;
15905;SDS011;8051;50.820;4.884;2023-07-13T13:19:45;10.43;;;9.73;;
15905;SDS011;8051;50.820;4.884;2023-07-13T13:22:13;10.70;;;10.07;;
15905;SDS011;8051;50.820;4.884;2023-07-13T13:24:41;17.67;;;16.57;;
15905;SDS011;8051;50.820;4.884;2023-07-13T13:27:13;13.13;;;12.23;;
15905;SDS011;8051;50.820;4.884;2023-07-13T13:29:43;12.40;;;11.73;;
15905;SDS011;8051;50.820;4.884;2023-07-13T13:32:12;13.57;;;12.67;;
15905;SDS011;8051;50.820;4.884;2023-07-13T13:34:40;11.20;;;10.23;;
15905;SDS011;8051;50.820;4.884;2023-07-13T13:37:18;11.50;;;10.60;;
15905;SDS011;8051;50.820;4.884;2023-07-13T13:39:46;12.10;;;11.40;;
15905;SDS011;8051;50.820;4.884;2023-07-13T13:42:16;12.43;;;11.63;;
15905;SDS011;8051;50.820;4.884;2023-07-13T13:44:44;13.60;;;12.70;;
15905;SDS011;8051;50.820;4.884;2023-07-13T13:47:18;14.60;;;13.90;;
15905;SDS011;8051;50.820;4.884;2023-07-13T13:49:54;14.00;;;13.30;;
15905;SDS011;8051;50.820;4.884;2023-07-13T13:52:22;16.10;;;15.27;;
15905;SDS011;8051;50.820;4.884;2023-07-13T13:54:50;15.83;;;15.03;;
15905;SDS011;8051;50.820;4.884;2023-07-13T13:57:22;15.63;;;14.83;;
15905;SDS011;8051;50.820;4.884;2023-07-13T13:59:51;14.00;;;13.30;;
15905;SDS011;8051;50.820;4.884;2023-07-13T14:02:22;14.87;;;13.97;;
15905;SDS011;8051;50.820;4.884;2023-07-13T14:04:54;12.27;;;11.47;;
15905;SDS011;8051;50.820;4.884;2023-07-13T14:07:25;10.93;;;10.27;;
15905;SDS011;8051;50.820;4.884;2023-07-13T14:09:55;11.03;;;10.37;;
15905;SDS011;8051;50.820;4.884;2023-07-13T14:12:27;11.30;;;10.50;;
15905;SDS011;8051;50.820;4.884;2023-07-13T14:14:55;10.90;;;10.20;;
15905;SDS011;8051;50.820;4.884;2023-07-13T14:17:24;11.13;;;10.43;;
15905;SDS011;8051;50.820;4.884;2023-07-13T14:19:53;13.47;;;12.37;;
15905;SDS011;8051;50.820;4.884;2023-07-13T14:22:23;11.37;;;10.57;;
15905;SDS011;8051;50.820;4.884;2023-07-13T14:24:51;11.77;;;10.90;;
15905;SDS011;8051;50.820;4.884;2023-07-13T14:27:19;11.73;;;11.10;;
15905;SDS011;8051;50.820;4.884;2023-07-13T14:29:48;12.20;;;10.93;;
15905;SDS011;8051;50.820;4.884;2023-07-13T14:32:15;11.53;;;10.60;;
15905;SDS011;8051;50.820;4.884;2023-07-13T14:34:43;11.70;;;10.67;;
15905;SDS011;8051;50.820;4.884;2023-07-13T14:37:12;11.60;;;10.53;;
15905;SDS011;8051;50.820;4.884;2023-07-13T14:39:42;9.77;;;9.17;;
15905;SDS011;8051;50.820;4.884;2023-07-13T14:42:10;10.63;;;10.03;;
15905;SDS011;8051;50.820;4.884;2023-07-13T14:44:38;11.97;;;10.90;;
15905;SDS011;8051;50.820;4.884;2023-07-13T14:47:07;10.97;;;10.33;;
15905;SDS011;8051;50.820;4.884;2023-07-13T14:49:37;11.70;;;10.87;;
15905;SDS011;8051;50.820;4.884;2023-07-13T14:52:10;12.53;;;11.40;;